sensor_id;sensor_type;location;lat;lon;timestamp;pressure;altitude;pressure_sealevel;temperature
15709;BMP180;7954;51.914;8.420;2023-04-15T00:01:08;99600.44;;;15.20
15709;BMP180;7954;51.914;8.420;2023-04-15T00:03:39;99608.69;;;15.12
15709;BMP180;7954;51.914;8.420;2023-04-15T00:06:07;99602.75;;;15.06
15709;BMP180;7954;51.914;8.420;2023-04-15T00:08:35;99598.00;;;15.02
15709;BMP180;7954;51.914;8.420;2023-04-15T00:11:03;99607.72;;;14.99
15709;BMP180;7954;51.914;8.420;2023-04-15T00:13:32;99602.94;;;14.95
15709;BMP180;7954;51.914;8.420;2023-04-15T00:16:00;99599.56;;;14.89
15709;BMP180;7954;51.914;8.420;2023-04-15T00:18:29;99598.78;;;14.83
15709;BMP180;7954;51.914;8.420;2023-04-15T00:20:58;99606.16;;;14.82
15709;BMP180;7954;51.914;8.420;2023-04-15T00:23:26;99595.09;;;14.81
15709;BMP180;7954;51.914;8.420;2023-04-15T00:25:54;99595.41;;;14.77
15709;BMP180;7954;51.914;8.420;2023-04-15T00:28:22;99591.53;;;14.74
15709;BMP180;7954;51.914;8.420;2023-04-15T00:30:50;99588.56;;;14.71
15709;BMP180;7954;51.914;8.420;2023-04-15T00:33:18;99582.38;;;14.69
15709;BMP180;7954;51.914;8.420;2023-04-15T00:35:46;99592.31;;;14.68
15709;BMP180;7954;51.914;8.420;2023-04-15T00:38:15;99592.81;;;14.65
15709;BMP180;7954;51.914;8.420;2023-04-15T00:40:43;99589.66;;;14.61
15709;BMP180;7954;51.914;8.420;2023-04-15T00:43:11;99593.00;;;14.54
15709;BMP180;7954;51.914;8.420;2023-04-15T00:45:40;99587.50;;;14.51
15709;BMP180;7954;51.914;8.420;2023-04-15T00:48:08;99586.56;;;14.51
15709;BMP180;7954;51.914;8.420;2023-04-15T00:50:37;99588.78;;;14.42
15709;BMP180;7954;51.914;8.420;2023-04-15T00:53:05;99583.78;;;14.37
15709;BMP180;7954;51.914;8.420;2023-04-15T00:55:34;99589.25;;;14.40
15709;BMP180;7954;51.914;8.420;2023-04-15T00:58:02;99588.66;;;14.35
15709;BMP180;7954;51.914;8.420;2023-04-15T01:00:30;99592.00;;;14.29
15709;BMP180;7954;51.914;8.420;2023-04-15T01:02:58;99592.50;;;14.26
15709;BMP180;7954;51.914;8.420;2023-04-15T01:05:27;99591.84;;;14.22
15709;BMP180;7954;51.914;8.420;2023-04-15T01:07:56;99592.13;;;14.18
15709;BMP180;7954;51.914;8.420;2023-04-15T01:10:24;99585.91;;;14.16
15709;BMP180;7954;51.914;8.420;2023-04-15T01:12:54;99585.31;;;14.12
15709;BMP180;7954;51.914;8.420;2023-04-15T01:15:22;99587.16;;;14.07
15709;BMP180;7954;51.914;8.420;2023-04-15T01:17:51;99578.41;;;14.05
15709;BMP180;7954;51.914;8.420;2023-04-15T01:20:19;99589.31;;;14.04
15709;BMP180;7954;51.914;8.420;2023-04-15T01:22:47;99590.03;;;13.98
15709;BMP180;7954;51.914;8.420;2023-04-15T01:25:17;99597.34;;;13.89
15709;BMP180;7954;51.914;8.420;2023-04-15T01:27:47;99594.06;;;13.90
15709;BMP180;7954;51.914;8.420;2023-04-15T01:30:14;99597.34;;;13.89
15709;BMP180;7954;51.914;8.420;2023-04-15T01:32:43;99598.94;;;13.89
15709;BMP180;7954;51.914;8.420;2023-04-15T01:35:10;99590.22;;;13.87
15709;BMP180;7954;51.914;8.420;2023-04-15T01:37:38;99596.53;;;13.78
15709;BMP180;7954;51.914;8.420;2023-04-15T01:40:07;99596.81;;;13.74
15709;BMP180;7954;51.914;8.420;2023-04-15T01:42:35;99594.06;;;13.72
15709;BMP180;7954;51.914;8.420;2023-04-15T01:45:07;99596.88;;;13.68
15709;BMP180;7954;51.914;8.420;2023-04-15T01:47:35;99601.97;;;13.68
15709;BMP180;7954;51.914;8.420;2023-04-15T01:50:04;99602.25;;;13.64
15709;BMP180;7954;51.914;8.420;2023-04-15T01:52:33;99598.56;;;13.62
15709;BMP180;7954;51.914;8.420;2023-04-15T01:55:01;99606.25;;;13.57
15709;BMP180;7954;51.914;8.420;2023-04-15T01:57:29;99616.59;;;13.58
15709;BMP180;7954;51.914;8.420;2023-04-15T01:59:57;99609.75;;;13.52
15709;BMP180;7954;51.914;8.420;2023-04-15T02:02:26;99613.47;;;13.48
15709;BMP180;7954;51.914;8.420;2023-04-15T02:04:55;99617.19;;;13.45
15709;BMP180;7954;51.914;8.420;2023-04-15T02:07:23;99622.06;;;13.44
15709;BMP180;7954;51.914;8.420;2023-04-15T02:09:51;99619.34;;;13.37
15709;BMP180;7954;51.914;8.420;2023-04-15T02:12:19;99625.56;;;13.39
15709;BMP180;7954;51.914;8.420;2023-04-15T02:14:47;99616.13;;;13.38
15709;BMP180;7954;51.914;8.420;2023-04-15T02:17:15;99618.94;;;13.34
15709;BMP180;7954;51.914;8.420;2023-04-15T02:19:44;99616.19;;;13.32
15709;BMP180;7954;51.914;8.420;2023-04-15T02:22:13;99629.06;;;13.34
15709;BMP180;7954;51.914;8.420;2023-04-15T02:24:44;99620.31;;;13.32
15709;BMP180;7954;51.914;8.420;2023-04-15T02:27:15;99622.16;;;13.33
15709;BMP180;7954;51.914;8.420;2023-04-15T02:29:44;99622.16;;;13.33
15709;BMP180;7954;51.914;8.420;2023-04-15T02:32:12;99619.41;;;13.31
15709;BMP180;7954;51.914;8.420;2023-04-15T02:34:40;99625.47;;;13.26
15709;BMP180;7954;51.914;8.420;2023-04-15T02:37:11;99619.03;;;13.23
15709;BMP180;7954;51.914;8.420;2023-04-15T02:39:39;99620.44;;;13.21
15709;BMP180;7954;51.914;8.420;2023-04-15T02:42:07;99620.06;;;13.12
15709;BMP180;7954;51.914;8.420;2023-04-15T02:44:35;99620.28;;;13.14
15709;BMP180;7954;51.914;8.420;2023-04-15T02:47:03;99615.69;;;13.11
15709;BMP180;7954;51.914;8.420;2023-04-15T02:49:32;99621.47;;;13.10
15709;BMP180;7954;51.914;8.420;2023-04-15T02:52:00;99624.97;;;13.05
15709;BMP180;7954;51.914;8.420;2023-04-15T02:54:32;99622.22;;;13.04
15709;BMP180;7954;51.914;8.420;2023-04-15T02:57:00;99625.91;;;13.00
15709;BMP180;7954;51.914;8.420;2023-04-15T02:59:28;99620.19;;;12.96
15709;BMP180;7954;51.914;8.420;2023-04-15T03:01:56;99623.44;;;12.95
15709;BMP180;7954;51.914;8.420;2023-04-15T03:04:26;99631.28;;;12.91
15709;BMP180;7954;51.914;8.420;2023-04-15T03:06:55;99628.78;;;12.85
15709;BMP180;7954;51.914;8.420;2023-04-15T03:09:24;99634.38;;;12.72
15709;BMP180;7954;51.914;8.420;2023-04-15T03:11:53;99630.28;;;12.67
15709;BMP180;7954;51.914;8.420;2023-04-15T03:14:22;99630.09;;;12.60
15709;BMP180;7954;51.914;8.420;2023-04-15T03:16:50;99622.53;;;12.55
15709;BMP180;7954;51.914;8.420;2023-04-15T03:19:19;99630.56;;;12.58
15709;BMP180;7954;51.914;8.420;2023-04-15T03:21:47;99629.66;;;12.57
15709;BMP180;7954;51.914;8.420;2023-04-15T03:24:15;99633.56;;;12.55
15709;BMP180;7954;51.914;8.420;2023-04-15T03:26:43;99628.75;;;12.57
15709;BMP180;7954;51.914;8.420;2023-04-15T03:29:13;99630.34;;;12.56
15709;BMP180;7954;51.914;8.420;2023-04-15T03:31:41;99628.28;;;12.54
15709;BMP180;7954;51.914;8.420;2023-04-15T03:34:09;99624.66;;;12.46
15709;BMP180;7954;51.914;8.420;2023-04-15T03:36:37;99633.41;;;12.43
15709;BMP180;7954;51.914;8.420;2023-04-15T03:39:05;99629.56;;;12.39
15709;BMP180;7954;51.914;8.420;2023-04-15T03:41:33;99619.81;;;12.48
15709;BMP180;7954;51.914;8.420;2023-04-15T03:44:01;99631.31;;;12.51
15709;BMP180;7954;51.914;8.420;2023-04-15T03:46:31;99624.66;;;12.52
15709;BMP180;7954;51.914;8.420;2023-04-15T03:48:59;99625.50;;;12.58
15709;BMP180;7954;51.914;8.420;2023-04-15T03:51:27;99636.72;;;12.65
15709;BMP180;7954;51.914;8.420;2023-04-15T03:53:55;99627.28;;;12.70
15709;BMP180;7954;51.914;8.420;2023-04-15T03:56:24;99627.06;;;12.68
15709;BMP180;7954;51.914;8.420;2023-04-15T03:58:52;99634.44;;;12.67
15709;BMP180;7954;51.914;8.420;2023-04-15T04:01:20;99636.50;;;12.69
15709;BMP180;7954;51.914;8.420;2023-04-15T04:03:49;99642.69;;;12.71
15709;BMP180;7954;51.914;8.420;2023-04-15T04:06:18;99638.75;;;12.73
15709;BMP180;7954;51.914;8.420;2023-04-15T04:08:46;99640.59;;;12.74
15709;BMP180;7954;51.914;8.420;2023-04-15T04:11:14;99641.09;;;12.72
15709;BMP180;7954;51.914;8.420;2023-04-15T04:13:42;99647.06;;;12.72
15709;BMP180;7954;51.914;8.420;2023-04-15T04:16:09;99642.69;;;12.71
15709;BMP180;7954;51.914;8.420;2023-04-15T04:18:37;99648.91;;;12.68
15709;BMP180;7954;51.914;8.420;2023-04-15T04:21:07;99651.00;;;12.70
15709;BMP180;7954;51.914;8.420;2023-04-15T04:23:35;99649.59;;;12.72
15709;BMP180;7954;51.914;8.420;2023-04-15T04:26:03;99652.59;;;12.75
15709;BMP180;7954;51.914;8.420;2023-04-15T04:28:31;99655.13;;;12.70
15709;BMP180;7954;51.914;8.420;2023-04-15T04:30:58;99652.16;;;12.67
15709;BMP180;7954;51.914;8.420;2023-04-15T04:33:26;99651.44;;;12.73
15709;BMP180;7954;51.914;8.420;2023-04-15T04:35:55;99645.22;;;12.71
15709;BMP180;7954;51.914;8.420;2023-04-15T04:38:26;99653.75;;;12.72
15709;BMP180;7954;51.914;8.420;2023-04-15T04:40:54;99644.03;;;12.75
15709;BMP180;7954;51.914;8.420;2023-04-15T04:43:21;99642.88;;;12.78
15709;BMP180;7954;51.914;8.420;2023-04-15T04:45:50;99646.06;;;12.88
15709;BMP180;7954;51.914;8.420;2023-04-15T04:48:18;99641.41;;;12.91
15709;BMP180;7954;51.914;8.420;2023-04-15T04:50:46;99646.47;;;12.96
15709;BMP180;7954;51.914;8.420;2023-04-15T04:53:15;99642.28;;;12.97
15709;BMP180;7954;51.914;8.420;2023-04-15T04:55:45;99642.81;;;12.83
15709;BMP180;7954;51.914;8.420;2023-04-15T04:58:13;99640.03;;;12.93
15709;BMP180;7954;51.914;8.420;2023-04-15T05:00:42;99657.50;;;12.97
15709;BMP180;7954;51.914;8.420;2023-04-15T05:03:11;99650.50;;;13.07
15709;BMP180;7954;51.914;8.420;2023-04-15T05:05:39;99648.47;;;13.04
15709;BMP180;7954;51.914;8.420;2023-04-15T05:08:07;99651.19;;;13.06
15709;BMP180;7954;51.914;8.420;2023-04-15T05:10:35;99650.97;;;13.10
15709;BMP180;7954;51.914;8.420;2023-04-15T05:13:05;99653.97;;;13.07
15709;BMP180;7954;51.914;8.420;2023-04-15T05:15:32;99665.72;;;13.07
15709;BMP180;7954;51.914;8.420;2023-04-15T05:18:03;99659.94;;;13.08
15709;BMP180;7954;51.914;8.420;2023-04-15T05:20:31;99664.31;;;13.09
15709;BMP180;7954;51.914;8.420;2023-04-15T05:22:58;99671.00;;;13.08
15709;BMP180;7954;51.914;8.420;2023-04-15T05:25:26;99661.53;;;13.13
15709;BMP180;7954;51.914;8.420;2023-04-15T05:27:54;99665.41;;;13.16
15709;BMP180;7954;51.914;8.420;2023-04-15T05:30:23;99663.00;;;13.29
15709;BMP180;7954;51.914;8.420;2023-04-15T05:32:52;99667.25;;;13.41
15709;BMP180;7954;51.914;8.420;2023-04-15T05:35:20;99664.47;;;13.45
15709;BMP180;7954;51.914;8.420;2023-04-15T05:37:49;99661.22;;;13.46
15709;BMP180;7954;51.914;8.420;2023-04-15T05:40:16;99672.69;;;13.54
15709;BMP180;7954;51.914;8.420;2023-04-15T05:42:45;99680.44;;;13.61
15709;BMP180;7954;51.914;8.420;2023-04-15T05:45:13;99671.63;;;13.65
15709;BMP180;7954;51.914;8.420;2023-04-15T05:47:42;99679.91;;;13.69
15709;BMP180;7954;51.914;8.420;2023-04-15T05:50:11;99681.00;;;13.71
15709;BMP180;7954;51.914;8.420;2023-04-15T05:52:38;99682.38;;;13.75
15709;BMP180;7954;51.914;8.420;2023-04-15T05:55:07;99676.41;;;13.74
15709;BMP180;7954;51.914;8.420;2023-04-15T05:57:36;99688.34;;;13.75
15709;BMP180;7954;51.914;8.420;2023-04-15T06:00:04;99685.28;;;13.83
15709;BMP180;7954;51.914;8.420;2023-04-15T06:02:33;99687.25;;;13.91
15709;BMP180;7954;51.914;8.420;2023-04-15T06:05:03;99688.81;;;13.96
15709;BMP180;7954;51.914;8.420;2023-04-15T06:07:35;99698.47;;;13.99
15709;BMP180;7954;51.914;8.420;2023-04-15T06:10:04;99700.81;;;13.97
15709;BMP180;7954;51.914;8.420;2023-04-15T06:12:32;99699.94;;;13.91
15709;BMP180;7954;51.914;8.420;2023-04-15T06:15:00;99695.94;;;13.99
15709;BMP180;7954;51.914;8.420;2023-04-15T06:17:28;99702.56;;;14.09
15709;BMP180;7954;51.914;8.420;2023-04-15T06:19:57;99708.47;;;14.15
15709;BMP180;7954;51.914;8.420;2023-04-15T06:22:26;99704.25;;;14.21
15709;BMP180;7954;51.914;8.420;2023-04-15T06:24:54;99704.41;;;14.28
15709;BMP180;7954;51.914;8.420;2023-04-15T06:27:22;99702.06;;;14.47
15709;BMP180;7954;51.914;8.420;2023-04-15T06:29:50;99697.47;;;14.45
15709;BMP180;7954;51.914;8.420;2023-04-15T06:32:17;99696.78;;;14.64
15709;BMP180;7954;51.914;8.420;2023-04-15T06:34:45;99700.59;;;14.73
15709;BMP180;7954;51.914;8.420;2023-04-15T06:37:13;99697.25;;;14.79
15709;BMP180;7954;51.914;8.420;2023-04-15T06:39:43;99693.13;;;14.92
15709;BMP180;7954;51.914;8.420;2023-04-15T06:42:11;99708.41;;;15.04
15709;BMP180;7954;51.914;8.420;2023-04-15T06:44:39;99702.06;;;15.13
15709;BMP180;7954;51.914;8.420;2023-04-15T06:47:07;99699.97;;;15.29
15709;BMP180;7954;51.914;8.420;2023-04-15T06:49:35;99703.25;;;15.40
15709;BMP180;7954;51.914;8.420;2023-04-15T06:52:03;99702.66;;;15.48
15709;BMP180;7954;51.914;8.420;2023-04-15T06:54:31;99698.59;;;15.55
15709;BMP180;7954;51.914;8.420;2023-04-15T06:57:01;99698.81;;;15.69
15709;BMP180;7954;51.914;8.420;2023-04-15T06:59:29;99698.81;;;15.69
15709;BMP180;7954;51.914;8.420;2023-04-15T07:01:57;99703.38;;;15.72
15709;BMP180;7954;51.914;8.420;2023-04-15T07:04:24;99701.47;;;15.64
15709;BMP180;7954;51.914;8.420;2023-04-15T07:06:53;99702.75;;;15.55
15709;BMP180;7954;51.914;8.420;2023-04-15T07:09:22;99705.31;;;15.67
15709;BMP180;7954;51.914;8.420;2023-04-15T07:11:50;99706.63;;;15.58
15709;BMP180;7954;51.914;8.420;2023-04-15T07:14:19;99710.13;;;15.59
15709;BMP180;7954;51.914;8.420;2023-04-15T07:16:47;99712.44;;;15.57
15709;BMP180;7954;51.914;8.420;2023-04-15T07:19:15;99714.19;;;15.64
15709;BMP180;7954;51.914;8.420;2023-04-15T07:21:43;99710.28;;;15.48
15709;BMP180;7954;51.914;8.420;2023-04-15T07:24:11;99708.16;;;15.63
15709;BMP180;7954;51.914;8.420;2023-04-15T07:26:42;99715.41;;;15.73
15709;BMP180;7954;51.914;8.420;2023-04-15T07:29:10;99719.28;;;15.89
15709;BMP180;7954;51.914;8.420;2023-04-15T07:31:40;99716.63;;;16.07
15709;BMP180;7954;51.914;8.420;2023-04-15T07:34:08;99722.22;;;16.04
15709;BMP180;7954;51.914;8.420;2023-04-15T07:36:36;99717.97;;;15.85
15709;BMP180;7954;51.914;8.420;2023-04-15T07:39:06;99728.53;;;15.76
15709;BMP180;7954;51.914;8.420;2023-04-15T07:41:33;99725.41;;;15.96
15709;BMP180;7954;51.914;8.420;2023-04-15T07:44:02;99722.94;;;16.03
15709;BMP180;7954;51.914;8.420;2023-04-15T07:46:30;99721.72;;;16.07
15709;BMP180;7954;51.914;8.420;2023-04-15T07:49:00;99726.59;;;16.17
15709;BMP180;7954;51.914;8.420;2023-04-15T07:51:28;99728.00;;;16.15
15709;BMP180;7954;51.914;8.420;2023-04-15T07:53:56;99733.53;;;15.94
15709;BMP180;7954;51.914;8.420;2023-04-15T07:56:24;99735.34;;;15.95
15709;BMP180;7954;51.914;8.420;2023-04-15T07:58:54;99738.63;;;15.94
15709;BMP180;7954;51.914;8.420;2023-04-15T08:01:22;99735.78;;;15.98
15709;BMP180;7954;51.914;8.420;2023-04-15T08:03:50;99733.75;;;15.95
15709;BMP180;7954;51.914;8.420;2023-04-15T08:06:20;99736.47;;;15.97
15709;BMP180;7954;51.914;8.420;2023-04-15T08:08:48;99741.88;;;15.93
15709;BMP180;7954;51.914;8.420;2023-04-15T08:11:16;99745.50;;;15.57
15709;BMP180;7954;51.914;8.420;2023-04-15T08:13:44;99748.31;;;15.41
15709;BMP180;7954;51.914;8.420;2023-04-15T08:16:15;99756.94;;;15.54
15709;BMP180;7954;51.914;8.420;2023-04-15T08:18:44;99754.66;;;15.50
15709;BMP180;7954;51.914;8.420;2023-04-15T08:21:12;99749.34;;;15.36
15709;BMP180;7954;51.914;8.420;2023-04-15T08:23:44;99756.06;;;15.18
15709;BMP180;7954;51.914;8.420;2023-04-15T08:26:12;99761.00;;;15.29
15709;BMP180;7954;51.914;8.420;2023-04-15T08:28:42;99760.13;;;15.28
15709;BMP180;7954;51.914;8.420;2023-04-15T08:31:10;99757.00;;;15.18
15709;BMP180;7954;51.914;8.420;2023-04-15T08:33:39;99766.31;;;15.12
15709;BMP180;7954;51.914;8.420;2023-04-15T08:36:07;99760.19;;;15.23
15709;BMP180;7954;51.914;8.420;2023-04-15T08:38:35;99761.63;;;15.15
15709;BMP180;7954;51.914;8.420;2023-04-15T08:41:09;99766.47;;;15.01
15709;BMP180;7954;51.914;8.420;2023-04-15T08:43:43;99766.06;;;14.98
15709;BMP180;7954;51.914;8.420;2023-04-15T08:46:14;99769.03;;;15.01
15709;BMP180;7954;51.914;8.420;2023-04-15T08:48:43;99772.53;;;15.32
15709;BMP180;7954;51.914;8.420;2023-04-15T08:51:11;99783.31;;;15.24
15709;BMP180;7954;51.914;8.420;2023-04-15T08:53:42;99774.56;;;15.35
15709;BMP180;7954;51.914;8.420;2023-04-15T08:56:13;99778.84;;;15.41
15709;BMP180;7954;51.914;8.420;2023-04-15T08:58:43;99783.66;;;15.45
15709;BMP180;7954;51.914;8.420;2023-04-15T09:01:12;99765.13;;;15.46
15709;BMP180;7954;51.914;8.420;2023-04-15T09:03:41;99773.19;;;15.49
15709;BMP180;7954;51.914;8.420;2023-04-15T09:06:10;99765.97;;;15.52
15709;BMP180;7954;51.914;8.420;2023-04-15T09:08:38;99769.19;;;15.94
15709;BMP180;7954;51.914;8.420;2023-04-15T09:11:06;99762.13;;;16.23
15709;BMP180;7954;51.914;8.420;2023-04-15T09:13:35;99770.28;;;15.96
15709;BMP180;7954;51.914;8.420;2023-04-15T09:16:05;99768.03;;;15.79
15709;BMP180;7954;51.914;8.420;2023-04-15T09:18:35;99768.09;;;16.29
15709;BMP180;7954;51.914;8.420;2023-04-15T09:21:05;99766.41;;;16.54
15709;BMP180;7954;51.914;8.420;2023-04-15T09:23:34;99766.66;;;16.75
15709;BMP180;7954;51.914;8.420;2023-04-15T09:26:03;99771.69;;;17.00
15709;BMP180;7954;51.914;8.420;2023-04-15T09:28:32;99768.03;;;16.98
15709;BMP180;7954;51.914;8.420;2023-04-15T09:31:03;99775.75;;;16.73
15709;BMP180;7954;51.914;8.420;2023-04-15T09:33:30;99772.63;;;16.56
15709;BMP180;7954;51.914;8.420;2023-04-15T09:36:00;99776.84;;;16.75
15709;BMP180;7954;51.914;8.420;2023-04-15T09:38:29;99789.03;;;16.71
15709;BMP180;7954;51.914;8.420;2023-04-15T09:40:57;99781.38;;;16.71
15709;BMP180;7954;51.914;8.420;2023-04-15T09:43:36;99783.13;;;16.65
15709;BMP180;7954;51.914;8.420;2023-04-15T09:46:06;99794.13;;;16.71
15709;BMP180;7954;51.914;8.420;2023-04-15T09:48:35;99787.13;;;16.94
15709;BMP180;7954;51.914;8.420;2023-04-15T09:51:03;99798.66;;;16.29
15709;BMP180;7954;51.914;8.420;2023-04-15T09:53:33;99793.94;;;16.44
15709;BMP180;7954;51.914;8.420;2023-04-15T09:56:02;99799.53;;;16.54
15709;BMP180;7954;51.914;8.420;2023-04-15T09:58:34;99799.84;;;16.50
15709;BMP180;7954;51.914;8.420;2023-04-15T10:01:05;99807.47;;;16.01
15709;BMP180;7954;51.914;8.420;2023-04-15T10:03:34;99804.59;;;15.92
15709;BMP180;7954;51.914;8.420;2023-04-15T10:06:03;99813.50;;;16.01
15709;BMP180;7954;51.914;8.420;2023-04-15T10:08:33;99803.84;;;16.23
15709;BMP180;7954;51.914;8.420;2023-04-15T10:11:02;99806.16;;;16.22
15709;BMP180;7954;51.914;8.420;2023-04-15T10:13:31;99792.53;;;16.34
15709;BMP180;7954;51.914;8.420;2023-04-15T10:16:06;99797.63;;;16.46
15709;BMP180;7954;51.914;8.420;2023-04-15T10:18:35;99804.22;;;16.02
15709;BMP180;7954;51.914;8.420;2023-04-15T10:21:04;99811.13;;;15.78
15709;BMP180;7954;51.914;8.420;2023-04-15T10:23:33;99809.00;;;15.93
15709;BMP180;7954;51.914;8.420;2023-04-15T10:26:03;99805.13;;;16.02
15709;BMP180;7954;51.914;8.420;2023-04-15T10:28:31;99800.53;;;16.12
15709;BMP180;7954;51.914;8.420;2023-04-15T10:31:00;99799.25;;;15.96
15709;BMP180;7954;51.914;8.420;2023-04-15T10:33:30;99800.47;;;16.05
15709;BMP180;7954;51.914;8.420;2023-04-15T10:35:59;99807.28;;;15.99
15709;BMP180;7954;51.914;8.420;2023-04-15T10:38:34;99802.00;;;16.22
15709;BMP180;7954;51.914;8.420;2023-04-15T10:41:17;99805.25;;;16.21
15709;BMP180;7954;51.914;8.420;2023-04-15T10:43:48;99814.53;;;16.08
15709;BMP180;7954;51.914;8.420;2023-04-15T10:46:33;99816.69;;;15.63
15709;BMP180;7954;51.914;8.420;2023-04-15T10:49:10;99832.72;;;15.26
15709;BMP180;7954;51.914;8.420;2023-04-15T10:51:39;99830.47;;;15.22
15709;BMP180;7954;51.914;8.420;2023-04-15T10:54:12;99836.91;;;15.26
15709;BMP180;7954;51.914;8.420;2023-04-15T10:56:40;99835.47;;;15.28
15709;BMP180;7954;51.914;8.420;2023-04-15T10:59:10;99832.66;;;15.32
15709;BMP180;7954;51.914;8.420;2023-04-15T11:01:52;99836.66;;;15.42
15709;BMP180;7954;51.914;8.420;2023-04-15T11:04:53;99839.72;;;15.22
15709;BMP180;7954;51.914;8.420;2023-04-15T11:07:48;99835.31;;;15.03
15709;BMP180;7954;51.914;8.420;2023-04-15T11:10:51;99842.38;;;14.93
15709;BMP180;7954;51.914;8.420;2023-04-15T11:13:31;99842.59;;;14.77
15709;BMP180;7954;51.914;8.420;2023-04-15T11:16:01;99848.53;;;14.82
15709;BMP180;7954;51.914;8.420;2023-04-15T11:18:31;99847.25;;;14.91
15709;BMP180;7954;51.914;8.420;2023-04-15T11:21:03;99828.84;;;15.05
15709;BMP180;7954;51.914;8.420;2023-04-15T11:23:34;99851.00;;;14.70
15709;BMP180;7954;51.914;8.420;2023-04-15T11:26:03;99853.25;;;14.74
15709;BMP180;7954;51.914;8.420;2023-04-15T11:28:35;99847.47;;;14.93
15709;BMP180;7954;51.914;8.420;2023-04-15T11:31:06;99856.84;;;14.99
15709;BMP180;7954;51.914;8.420;2023-04-15T11:33:34;99857.72;;;14.87
15709;BMP180;7954;51.914;8.420;2023-04-15T11:36:05;99860.75;;;15.03
15709;BMP180;7954;51.914;8.420;2023-04-15T11:38:33;99860.09;;;15.16
15709;BMP180;7954;51.914;8.420;2023-04-15T11:41:03;99872.53;;;15.26
15709;BMP180;7954;51.914;8.420;2023-04-15T11:43:31;99861.69;;;15.39
15709;BMP180;7954;51.914;8.420;2023-04-15T11:46:01;99868.03;;;15.30
15709;BMP180;7954;51.914;8.420;2023-04-15T11:48:32;99876.16;;;15.45
15709;BMP180;7954;51.914;8.420;2023-04-15T11:51:02;99878.94;;;15.29
15709;BMP180;7954;51.914;8.420;2023-04-15T11:53:40;99868.66;;;15.52
15709;BMP180;7954;51.914;8.420;2023-04-15T11:56:10;99884.94;;;15.30
15709;BMP180;7954;51.914;8.420;2023-04-15T11:58:38;99882.69;;;15.26
15709;BMP180;7954;51.914;8.420;2023-04-15T12:01:07;99886.03;;;15.14
15709;BMP180;7954;51.914;8.420;2023-04-15T12:03:36;99882.31;;;15.17
15709;BMP180;7954;51.914;8.420;2023-04-15T12:06:15;99889.00;;;15.17
15709;BMP180;7954;51.914;8.420;2023-04-15T12:08:56;99899.66;;;14.96
15709;BMP180;7954;51.914;8.420;2023-04-15T12:11:31;99904.91;;;15.03
15709;BMP180;7954;51.914;8.420;2023-04-15T12:14:04;99899.81;;;15.03
15709;BMP180;7954;51.914;8.420;2023-04-15T12:16:33;99902.84;;;15.01
15709;BMP180;7954;51.914;8.420;2023-04-15T12:19:17;99907.16;;;15.07
15709;BMP180;7954;51.914;8.420;2023-04-15T12:21:46;99898.81;;;15.32
15709;BMP180;7954;51.914;8.420;2023-04-15T12:24:19;99911.94;;;15.35
15709;BMP180;7954;51.914;8.420;2023-04-15T12:26:48;99909.53;;;15.42
15709;BMP180;7954;51.914;8.420;2023-04-15T12:29:17;99906.63;;;15.33
15709;BMP180;7954;51.914;8.420;2023-04-15T12:31:46;99913.78;;;15.36
15709;BMP180;7954;51.914;8.420;2023-04-15T12:34:15;99918.00;;;15.30
15709;BMP180;7954;51.914;8.420;2023-04-15T12:36:43;99934.91;;;15.29
15709;BMP180;7954;51.914;8.420;2023-04-15T12:39:12;99921.22;;;15.34
15709;BMP180;7954;51.914;8.420;2023-04-15T12:41:42;99926.00;;;15.38
15709;BMP180;7954;51.914;8.420;2023-04-15T12:44:10;99927.84;;;15.39
15709;BMP180;7954;51.914;8.420;2023-04-15T12:46:38;99922.31;;;15.36
15709;BMP180;7954;51.914;8.420;2023-04-15T12:49:07;99934.91;;;15.47
15709;BMP180;7954;51.914;8.420;2023-04-15T12:51:34;99938.66;;;15.20
15709;BMP180;7954;51.914;8.420;2023-04-15T12:54:03;99941.50;;;15.16
15709;BMP180;7954;51.914;8.420;2023-04-15T12:56:32;99949.19;;;15.11
15709;BMP180;7954;51.914;8.420;2023-04-15T12:59:01;99950.59;;;15.32
15709;BMP180;7954;51.914;8.420;2023-04-15T13:01:31;99946.66;;;15.34
15709;BMP180;7954;51.914;8.420;2023-04-15T13:03:59;99939.13;;;15.41
15709;BMP180;7954;51.914;8.420;2023-04-15T13:06:27;99943.53;;;15.42
15709;BMP180;7954;51.914;8.420;2023-04-15T13:08:57;99944.38;;;15.48
15709;BMP180;7954;51.914;8.420;2023-04-15T13:11:27;99952.06;;;15.19
15709;BMP180;7954;51.914;8.420;2023-04-15T13:13:56;99950.88;;;15.05
15709;BMP180;7954;51.914;8.420;2023-04-15T13:16:26;99949.31;;;15.23
15709;BMP180;7954;51.914;8.420;2023-04-15T13:18:54;99952.34;;;15.15
15709;BMP180;7954;51.914;8.420;2023-04-15T13:21:22;99956.09;;;15.35
15709;BMP180;7954;51.914;8.420;2023-04-15T13:23:50;99946.66;;;15.34
15709;BMP180;7954;51.914;8.420;2023-04-15T13:26:18;99954.97;;;15.33
15709;BMP180;7954;51.914;8.420;2023-04-15T13:28:46;99958.91;;;15.31
15709;BMP180;7954;51.914;8.420;2023-04-15T13:31:13;99949.53;;;15.25
15709;BMP180;7954;51.914;8.420;2023-04-15T13:33:43;99958.91;;;15.31
15709;BMP180;7954;51.914;8.420;2023-04-15T13:36:11;99968.28;;;15.20
15709;BMP180;7954;51.914;8.420;2023-04-15T13:38:39;99965.34;;;15.35
15709;BMP180;7954;51.914;8.420;2023-04-15T13:41:08;99973.81;;;15.23
15709;BMP180;7954;51.914;8.420;2023-04-15T13:43:35;99968.19;;;15.31
15709;BMP180;7954;51.914;8.420;2023-04-15T13:46:03;99981.03;;;15.38
15709;BMP180;7954;51.914;8.420;2023-04-15T13:48:33;99980.53;;;15.22
15709;BMP180;7954;51.914;8.420;2023-04-15T13:51:03;99980.25;;;15.26
15709;BMP180;7954;51.914;8.420;2023-04-15T13:53:31;99985.13;;;15.19
15709;BMP180;7954;51.914;8.420;2023-04-15T13:56:05;99989.88;;;15.34
15709;BMP180;7954;51.914;8.420;2023-04-15T13:58:33;99984.00;;;15.58
15709;BMP180;7954;51.914;8.420;2023-04-15T14:01:02;99985.91;;;15.36
15709;BMP180;7954;51.914;8.420;2023-04-15T14:03:32;99992.16;;;15.38
15709;BMP180;7954;51.914;8.420;2023-04-15T14:06:00;99991.38;;;15.27
15709;BMP180;7954;51.914;8.420;2023-04-15T14:08:29;99994.19;;;15.41
15709;BMP180;7954;51.914;8.420;2023-04-15T14:10:57;99992.00;;;15.49
15709;BMP180;7954;51.914;8.420;2023-04-15T14:13:25;99997.09;;;15.67
15709;BMP180;7954;51.914;8.420;2023-04-15T14:15:53;100004.16;;;15.75
15709;BMP180;7954;51.914;8.420;2023-04-15T14:18:21;100006.94;;;15.76
15709;BMP180;7954;51.914;8.420;2023-04-15T14:20:49;100008.19;;;15.85
15709;BMP180;7954;51.914;8.420;2023-04-15T14:23:17;100016.31;;;15.65
15709;BMP180;7954;51.914;8.420;2023-04-15T14:25:47;100020.34;;;15.57
15709;BMP180;7954;51.914;8.420;2023-04-15T14:28:15;100026.94;;;15.68
15709;BMP180;7954;51.914;8.420;2023-04-15T14:30:43;100013.63;;;15.94
15709;BMP180;7954;51.914;8.420;2023-04-15T14:33:11;100023.25;;;15.84